LEWISTON (LEW)

Elevation: 1870' · TRINITY R basin · Operator: US Bureau of Reclamation

Provisional data, subject to change.
Query executed Wednesday at 2:37:16   clock

Select a sensor type for a plot of data.
Note: Reservoir Flows are daily averages.

Earlier

Date RES ELE    STORAGE    RES CHG    OUTFLOW    INFLOW    EVAP    RIV REL    SPILL    DIS PWR   
 FEET   AF   AF   CFS   CFS   CFS   CFS   CFS   CFS  
06/28/2016 1900.63 13639 37 2813 2838 6 1669 1519 110
06/29/2016 1900.87 13815 176 2675 2771 7 1625 1475 110
06/30/2016 1900.58 13602 81 2779 2679 7 1709 1559 110
07/01/2016 1900.55 13580 -316 2890 2884 5 1822 1672 110
07/02/2016 1900.70 13690 110 2676 2738 7 1608 1458 110
07/03/2016 1900.88 13823 133 2681 2755 7 1612 1462 110
07/04/2016 1900.94 13867 44 2558 2590 10 1491 1341 110
07/05/2016 1900.57 13595 -272 2876 2745 6 1474 1324 110
07/06/2016 1900.89 13830 235 2742 2867 7 1420 1270 110
07/07/2016 1900.98 13896 66 2482 2522 7 1424 1274 110
07/08/2016 1900.97 13889 -7 2450 2453 7 1385 1235 110
07/09/2016 1900.98 13896 7 2478 2487 5 1307 1157 110
07/10/2016 1901.91 14592 696 1728 2087 8 1262 1112 110
07/11/2016 1900.94 13867 -725 2305 1945 6 1194 1044 110
07/12/2016 1901.23 14083 216 2372 2486 5 1185 1035 110
07/13/2016 1901.00 13911 -172 2556 2475 6 1189 1039 110
07/14/2016 1900.71 13698 -213 2682 2581 6 1188 1038 110
07/15/2016 1900.94 13867 169 2967 3059 7 1183 1033 110
07/16/2016 1901.40 14210 343 3238 3419 8 1191 1041 110
07/17/2016 1901.15 14023 -187 2342 2257 9 1189 1039 110
07/18/2016 1901.31 14143 120 2595 2662 7 1061 911 110
07/19/2016 1900.93 13859 -284 2329 2191 5 985 835 110
07/20/2016 1900.94 13867 8 2104 2115 7 907 757 110
07/21/2016 1901.02 13926 59 1878 1915 7 835 685 110
07/22/2016 1901.74 14465 539 1338 1616 6 740 590 110
07/23/2016 1901.49 14278 -187 1725 1638 7 701 551 110
07/24/2016 1901.67 14412 134 1588 1665 9 702 552 110
07/25/2016 1901.19 14053 -359 1849 1679 11 702 552 110
07/26/2016 -- -- -- -- -- -- -- -- --
07/27/2016 -- -- -- -- -- -- -- -- --

Later | Latest

Warning! This data is preliminary and subject to revision.

Show LEW Map | Plot LEW Data | 1 Month LEW Data | Real-Time LEW Data | LEW Info